sensor_id;sensor_type;location;lat;lon;timestamp;P1;durP1;ratioP1;P2;durP2;ratioP2
55310;SDS011;41173;52.634;-8.666;2022-07-05T11:03:36;1.88;;;0.77;;
55310;SDS011;41173;52.634;-8.666;2022-07-05T11:06:03;5.20;;;0.60;;
55310;SDS011;41173;52.634;-8.666;2022-07-05T11:08:30;4.05;;;0.90;;
55310;SDS011;41173;52.634;-8.666;2022-07-05T11:11:21;16.25;;;1.10;;
55310;SDS011;41173;52.634;-8.666;2022-07-05T11:13:53;3.97;;;0.90;;
55310;SDS011;41173;52.634;-8.666;2022-07-05T11:16:23;3.22;;;0.75;;
55310;SDS011;41173;52.634;-8.666;2022-07-05T11:18:50;1.45;;;0.50;;
55310;SDS011;41173;52.634;-8.666;2022-07-05T11:23:44;3.80;;;0.60;;
55310;SDS011;41173;52.634;-8.666;2022-07-05T11:26:10;4.70;;;0.63;;
55310;SDS011;41173;52.634;-8.666;2022-07-05T11:28:43;1.30;;;0.40;;
55310;SDS011;41173;52.634;-8.666;2022-07-05T11:31:09;0.63;;;0.40;;
55310;SDS011;41173;52.634;-8.666;2022-07-05T11:33:36;1.07;;;0.50;;
55310;SDS011;41173;52.634;-8.666;2022-07-05T11:36:03;2.47;;;0.50;;
55310;SDS011;41173;52.634;-8.666;2022-07-05T11:38:30;0.73;;;0.40;;
55310;SDS011;41173;52.634;-8.666;2022-07-05T11:40:56;1.15;;;0.40;;
55310;SDS011;41173;52.634;-8.666;2022-07-05T11:43:36;3.83;;;0.30;;
55310;SDS011;41173;52.634;-8.666;2022-07-05T11:46:01;3.27;;;0.40;;
55310;SDS011;41173;52.634;-8.666;2022-07-05T11:48:28;2.58;;;0.70;;
55310;SDS011;41173;52.634;-8.666;2022-07-05T11:53:29;3.13;;;0.70;;
55310;SDS011;41173;52.634;-8.666;2022-07-05T11:55:59;0.70;;;0.68;;
55310;SDS011;41173;52.634;-8.666;2022-07-05T11:58:33;2.85;;;0.77;;
55310;SDS011;41173;52.634;-8.666;2022-07-05T12:00:59;4.25;;;1.00;;
55310;SDS011;41173;52.634;-8.666;2022-07-05T12:03:26;4.13;;;0.85;;
55310;SDS011;41173;52.634;-8.666;2022-07-05T12:05:52;1.70;;;0.90;;
55310;SDS011;41173;52.634;-8.666;2022-07-05T12:08:24;2.17;;;1.00;;
55310;SDS011;41173;52.634;-8.666;2022-07-05T12:10:50;1.80;;;1.08;;
55310;SDS011;41173;52.634;-8.666;2022-07-05T12:13:55;1.63;;;0.88;;
55310;SDS011;41173;52.634;-8.666;2022-07-05T12:16:20;2.60;;;1.20;;
55310;SDS011;41173;52.634;-8.666;2022-07-05T12:18:46;4.73;;;0.93;;
55310;SDS011;41173;52.634;-8.666;2022-07-05T12:21:13;4.05;;;0.82;;
55310;SDS011;41173;52.634;-8.666;2022-07-05T12:23:41;3.88;;;0.98;;
55310;SDS011;41173;52.634;-8.666;2022-07-05T12:26:08;3.53;;;1.20;;
55310;SDS011;41173;52.634;-8.666;2022-07-05T12:28:34;6.00;;;1.10;;
55310;SDS011;41173;52.634;-8.666;2022-07-05T12:31:13;7.75;;;1.40;;
55310;SDS011;41173;52.634;-8.666;2022-07-05T12:33:49;4.45;;;1.65;;
55310;SDS011;41173;52.634;-8.666;2022-07-05T12:36:16;4.05;;;1.35;;
55310;SDS011;41173;52.634;-8.666;2022-07-05T12:38:43;9.25;;;1.45;;
55310;SDS011;41173;52.634;-8.666;2022-07-05T12:41:09;7.65;;;1.48;;
55310;SDS011;41173;52.634;-8.666;2022-07-05T12:43:48;5.13;;;1.70;;
55310;SDS011;41173;52.634;-8.666;2022-07-05T12:46:18;5.85;;;1.80;;
55310;SDS011;41173;52.634;-8.666;2022-07-05T12:48:43;6.05;;;1.63;;
55310;SDS011;41173;52.634;-8.666;2022-07-05T12:51:10;7.07;;;1.60;;
55310;SDS011;41173;52.634;-8.666;2022-07-05T12:53:46;10.88;;;2.30;;
55310;SDS011;41173;52.634;-8.666;2022-07-05T12:56:31;6.43;;;1.88;;
55310;SDS011;41173;52.634;-8.666;2022-07-05T12:59:15;4.47;;;1.60;;
55310;SDS011;41173;52.634;-8.666;2022-07-05T13:01:41;5.57;;;2.07;;
55310;SDS011;41173;52.634;-8.666;2022-07-05T13:09:13;6.47;;;2.33;;
55310;SDS011;41173;52.634;-8.666;2022-07-05T13:11:41;5.90;;;2.15;;
55310;SDS011;41173;52.634;-8.666;2022-07-05T13:14:07;5.78;;;2.13;;
55310;SDS011;41173;52.634;-8.666;2022-07-05T13:16:32;10.53;;;2.17;;
55310;SDS011;41173;52.634;-8.666;2022-07-05T13:19:08;5.40;;;2.15;;
55310;SDS011;41173;52.634;-8.666;2022-07-05T13:21:37;7.00;;;1.95;;
55310;SDS011;41173;52.634;-8.666;2022-07-05T13:24:02;11.35;;;2.75;;
55310;SDS011;41173;52.634;-8.666;2022-07-05T13:26:28;6.20;;;2.35;;
55310;SDS011;41173;52.634;-8.666;2022-07-05T13:28:53;12.67;;;3.13;;
55310;SDS011;41173;52.634;-8.666;2022-07-05T13:31:19;11.67;;;3.20;;
55310;SDS011;41173;52.634;-8.666;2022-07-05T13:33:45;12.50;;;2.90;;
55310;SDS011;41173;52.634;-8.666;2022-07-05T13:38:36;13.75;;;3.05;;
55310;SDS011;41173;52.634;-8.666;2022-07-05T13:41:01;12.63;;;2.67;;
55310;SDS011;41173;52.634;-8.666;2022-07-05T13:43:27;14.70;;;2.93;;
55310;SDS011;41173;52.634;-8.666;2022-07-05T13:45:52;18.87;;;3.63;;
55310;SDS011;41173;52.634;-8.666;2022-07-05T13:48:18;15.13;;;3.30;;
55310;SDS011;41173;52.634;-8.666;2022-07-05T13:50:43;14.10;;;2.80;;
55310;SDS011;41173;52.634;-8.666;2022-07-05T13:53:08;16.17;;;3.20;;
55310;SDS011;41173;52.634;-8.666;2022-07-05T13:55:34;11.10;;;3.43;;
55310;SDS011;41173;52.634;-8.666;2022-07-05T13:57:59;9.90;;;2.50;;
55310;SDS011;41173;52.634;-8.666;2022-07-05T14:00:25;19.47;;;2.93;;
55310;SDS011;41173;52.634;-8.666;2022-07-05T14:02:51;9.07;;;2.35;;
55310;SDS011;41173;52.634;-8.666;2022-07-05T14:05:17;16.35;;;3.20;;
55310;SDS011;41173;52.634;-8.666;2022-07-05T14:10:09;13.60;;;3.47;;
55310;SDS011;41173;52.634;-8.666;2022-07-05T14:12:34;18.67;;;3.30;;
55310;SDS011;41173;52.634;-8.666;2022-07-05T14:15:00;14.50;;;2.93;;
55310;SDS011;41173;52.634;-8.666;2022-07-05T14:17:25;18.97;;;3.23;;
55310;SDS011;41173;52.634;-8.666;2022-07-05T14:19:51;17.13;;;3.17;;
55310;SDS011;41173;52.634;-8.666;2022-07-05T14:22:16;16.43;;;3.07;;
55310;SDS011;41173;52.634;-8.666;2022-07-05T14:24:41;19.43;;;4.07;;
55310;SDS011;41173;52.634;-8.666;2022-07-05T14:27:07;25.33;;;3.00;;
55310;SDS011;41173;52.634;-8.666;2022-07-05T14:29:33;17.17;;;3.63;;
55310;SDS011;41173;52.634;-8.666;2022-07-05T14:31:59;19.95;;;3.70;;
55310;SDS011;41173;52.634;-8.666;2022-07-05T14:34:24;16.97;;;3.67;;
55310;SDS011;41173;52.634;-8.666;2022-07-05T14:36:49;16.47;;;3.83;;
55310;SDS011;41173;52.634;-8.666;2022-07-05T14:39:15;18.73;;;3.10;;
55310;SDS011;41173;52.634;-8.666;2022-07-05T14:41:40;13.80;;;3.10;;
55310;SDS011;41173;52.634;-8.666;2022-07-05T14:44:06;11.23;;;2.97;;
55310;SDS011;41173;52.634;-8.666;2022-07-05T14:46:32;10.10;;;3.40;;
55310;SDS011;41173;52.634;-8.666;2022-07-05T14:48:57;11.53;;;2.60;;
55310;SDS011;41173;52.634;-8.666;2022-07-05T14:51:23;12.50;;;2.47;;
55310;SDS011;41173;52.634;-8.666;2022-07-05T14:53:48;18.37;;;2.80;;
55310;SDS011;41173;52.634;-8.666;2022-07-05T14:56:14;12.40;;;2.37;;
55310;SDS011;41173;52.634;-8.666;2022-07-05T14:58:40;10.95;;;2.40;;
55310;SDS011;41173;52.634;-8.666;2022-07-05T15:01:05;9.63;;;2.30;;
55310;SDS011;41173;52.634;-8.666;2022-07-05T15:03:31;8.27;;;2.30;;
55310;SDS011;41173;52.634;-8.666;2022-07-05T15:05:56;7.70;;;2.23;;
55310;SDS011;41173;52.634;-8.666;2022-07-05T15:08:21;11.17;;;2.23;;
55310;SDS011;41173;52.634;-8.666;2022-07-05T15:10:47;8.00;;;2.50;;
55310;SDS011;41173;52.634;-8.666;2022-07-05T15:13:13;6.45;;;1.77;;
55310;SDS011;41173;52.634;-8.666;2022-07-05T15:15:39;10.57;;;3.03;;
55310;SDS011;41173;52.634;-8.666;2022-07-05T15:18:04;9.93;;;2.17;;
55310;SDS011;41173;52.634;-8.666;2022-07-05T15:20:29;9.53;;;2.40;;
55310;SDS011;41173;52.634;-8.666;2022-07-05T15:22:55;6.90;;;2.27;;
55310;SDS011;41173;52.634;-8.666;2022-07-05T15:25:21;6.97;;;2.22;;
55310;SDS011;41173;52.634;-8.666;2022-07-05T15:27:47;10.85;;;2.45;;
55310;SDS011;41173;52.634;-8.666;2022-07-05T15:30:13;8.30;;;2.10;;
55310;SDS011;41173;52.634;-8.666;2022-07-05T15:35:05;15.77;;;2.80;;
55310;SDS011;41173;52.634;-8.666;2022-07-05T15:37:30;8.83;;;2.50;;
55310;SDS011;41173;52.634;-8.666;2022-07-05T15:39:55;6.40;;;2.50;;
55310;SDS011;41173;52.634;-8.666;2022-07-05T15:42:23;9.00;;;2.17;;
55310;SDS011;41173;52.634;-8.666;2022-07-05T15:44:49;7.68;;;2.17;;
55310;SDS011;41173;52.634;-8.666;2022-07-05T15:47:14;11.17;;;1.90;;
55310;SDS011;41173;52.634;-8.666;2022-07-05T15:49:40;7.22;;;1.92;;
55310;SDS011;41173;52.634;-8.666;2022-07-05T15:52:06;6.50;;;1.40;;
55310;SDS011;41173;52.634;-8.666;2022-07-05T15:54:33;19.00;;;2.40;;
55310;SDS011;41173;52.634;-8.666;2022-07-05T15:56:59;4.30;;;1.85;;
55310;SDS011;41173;52.634;-8.666;2022-07-05T15:59:24;9.73;;;2.13;;
55310;SDS011;41173;52.634;-8.666;2022-07-05T16:01:50;7.97;;;2.10;;
55310;SDS011;41173;52.634;-8.666;2022-07-05T16:06:42;5.93;;;1.67;;
55310;SDS011;41173;52.634;-8.666;2022-07-05T16:09:07;7.72;;;1.80;;
55310;SDS011;41173;52.634;-8.666;2022-07-05T16:11:33;6.03;;;1.70;;
55310;SDS011;41173;52.634;-8.666;2022-07-05T16:13:59;7.45;;;1.70;;
55310;SDS011;41173;52.634;-8.666;2022-07-05T16:16:24;6.03;;;1.57;;
55310;SDS011;41173;52.634;-8.666;2022-07-05T16:18:49;4.38;;;1.20;;
55310;SDS011;41173;52.634;-8.666;2022-07-05T16:21:16;4.23;;;1.40;;
55310;SDS011;41173;52.634;-8.666;2022-07-05T16:23:43;4.15;;;1.50;;
55310;SDS011;41173;52.634;-8.666;2022-07-05T16:26:11;4.13;;;1.45;;
55310;SDS011;41173;52.634;-8.666;2022-07-05T16:28:38;8.00;;;1.77;;
55310;SDS011;41173;52.634;-8.666;2022-07-05T16:31:05;14.43;;;1.65;;
55310;SDS011;41173;52.634;-8.666;2022-07-05T16:33:33;3.38;;;1.50;;
55310;SDS011;41173;52.634;-8.666;2022-07-05T16:36:06;10.02;;;1.60;;
55310;SDS011;41173;52.634;-8.666;2022-07-05T16:38:36;3.95;;;1.60;;
55310;SDS011;41173;52.634;-8.666;2022-07-05T16:41:02;5.50;;;1.80;;
55310;SDS011;41173;52.634;-8.666;2022-07-05T16:43:28;3.58;;;1.60;;
55310;SDS011;41173;52.634;-8.666;2022-07-05T16:45:53;6.20;;;1.67;;
55310;SDS011;41173;52.634;-8.666;2022-07-05T16:48:19;4.80;;;1.55;;
55310;SDS011;41173;52.634;-8.666;2022-07-05T16:50:46;6.18;;;1.70;;
55310;SDS011;41173;52.634;-8.666;2022-07-05T16:53:12;5.13;;;1.77;;
55310;SDS011;41173;52.634;-8.666;2022-07-05T16:55:37;4.77;;;1.40;;
55310;SDS011;41173;52.634;-8.666;2022-07-05T16:58:03;8.73;;;1.50;;
55310;SDS011;41173;52.634;-8.666;2022-07-05T17:00:29;4.37;;;1.40;;
55310;SDS011;41173;52.634;-8.666;2022-07-05T17:02:55;3.90;;;1.75;;
55310;SDS011;41173;52.634;-8.666;2022-07-05T17:05:21;4.35;;;1.40;;
55310;SDS011;41173;52.634;-8.666;2022-07-05T17:07:46;5.40;;;1.50;;
55310;SDS011;41173;52.634;-8.666;2022-07-05T17:10:12;2.35;;;1.20;;
55310;SDS011;41173;52.634;-8.666;2022-07-05T17:12:38;6.10;;;1.40;;
55310;SDS011;41173;52.634;-8.666;2022-07-05T17:15:03;2.43;;;1.10;;
55310;SDS011;41173;52.634;-8.666;2022-07-05T17:17:29;4.75;;;1.60;;
55310;SDS011;41173;52.634;-8.666;2022-07-05T17:19:55;2.17;;;1.30;;
55310;SDS011;41173;52.634;-8.666;2022-07-05T17:22:20;1.67;;;1.10;;
55310;SDS011;41173;52.634;-8.666;2022-07-05T17:24:45;0.97;;;0.90;;
55310;SDS011;41173;52.634;-8.666;2022-07-05T17:27:11;1.93;;;1.00;;
55310;SDS011;41173;52.634;-8.666;2022-07-05T17:29:36;2.03;;;0.80;;
55310;SDS011;41173;52.634;-8.666;2022-07-05T17:32:01;1.73;;;0.90;;
55310;SDS011;41173;52.634;-8.666;2022-07-05T17:34:27;1.57;;;0.87;;
55310;SDS011;41173;52.634;-8.666;2022-07-05T17:36:52;2.50;;;1.03;;
55310;SDS011;41173;52.634;-8.666;2022-07-05T17:41:44;1.20;;;0.80;;
55310;SDS011;41173;52.634;-8.666;2022-07-05T17:44:10;0.77;;;0.77;;
55310;SDS011;41173;52.634;-8.666;2022-07-05T17:46:36;1.63;;;0.60;;
55310;SDS011;41173;52.634;-8.666;2022-07-05T17:49:01;2.38;;;0.80;;
55310;SDS011;41173;52.634;-8.666;2022-07-05T17:51:27;1.17;;;0.70;;
55310;SDS011;41173;52.634;-8.666;2022-07-05T17:53:52;1.87;;;0.83;;
55310;SDS011;41173;52.634;-8.666;2022-07-05T17:56:18;2.30;;;0.80;;
55310;SDS011;41173;52.634;-8.666;2022-07-05T17:58:43;3.25;;;0.85;;
55310;SDS011;41173;52.634;-8.666;2022-07-05T18:01:10;2.20;;;0.80;;
55310;SDS011;41173;52.634;-8.666;2022-07-05T18:03:36;1.02;;;0.80;;
55310;SDS011;41173;52.634;-8.666;2022-07-05T18:08:28;2.45;;;0.98;;
55310;SDS011;41173;52.634;-8.666;2022-07-05T18:10:54;1.45;;;1.10;;
55310;SDS011;41173;52.634;-8.666;2022-07-05T18:13:20;3.60;;;0.87;;
55310;SDS011;41173;52.634;-8.666;2022-07-05T18:15:45;3.47;;;1.10;;
55310;SDS011;41173;52.634;-8.666;2022-07-05T18:18:11;3.13;;;1.30;;
55310;SDS011;41173;52.634;-8.666;2022-07-05T18:20:39;3.70;;;1.10;;
55310;SDS011;41173;52.634;-8.666;2022-07-05T18:23:06;3.08;;;1.20;;
55310;SDS011;41173;52.634;-8.666;2022-07-05T18:25:31;2.50;;;1.00;;
55310;SDS011;41173;52.634;-8.666;2022-07-05T18:27:57;1.90;;;1.10;;
55310;SDS011;41173;52.634;-8.666;2022-07-05T18:30:23;1.90;;;1.30;;
55310;SDS011;41173;52.634;-8.666;2022-07-05T18:32:49;2.03;;;1.00;;
55310;SDS011;41173;52.634;-8.666;2022-07-05T18:35:14;1.30;;;1.00;;
55310;SDS011;41173;52.634;-8.666;2022-07-05T18:37:40;4.30;;;1.40;;
55310;SDS011;41173;52.634;-8.666;2022-07-05T18:40:06;2.63;;;1.10;;
55310;SDS011;41173;52.634;-8.666;2022-07-05T18:42:32;2.35;;;1.42;;
55310;SDS011;41173;52.634;-8.666;2022-07-05T18:44:57;3.13;;;1.00;;
55310;SDS011;41173;52.634;-8.666;2022-07-05T18:47:23;4.47;;;1.15;;
55310;SDS011;41173;52.634;-8.666;2022-07-05T18:49:49;3.33;;;1.10;;
55310;SDS011;41173;52.634;-8.666;2022-07-05T18:52:15;5.10;;;0.90;;
55310;SDS011;41173;52.634;-8.666;2022-07-05T18:54:44;4.30;;;1.05;;
55310;SDS011;41173;52.634;-8.666;2022-07-05T18:57:11;4.55;;;1.23;;
55310;SDS011;41173;52.634;-8.666;2022-07-05T18:59:36;1.88;;;0.90;;
55310;SDS011;41173;52.634;-8.666;2022-07-05T19:02:02;5.33;;;1.07;;
55310;SDS011;41173;52.634;-8.666;2022-07-05T19:04:28;3.28;;;1.50;;
55310;SDS011;41173;52.634;-8.666;2022-07-05T19:06:54;3.70;;;1.25;;
55310;SDS011;41173;52.634;-8.666;2022-07-05T19:09:39;6.78;;;1.50;;
55310;SDS011;41173;52.634;-8.666;2022-07-05T19:12:23;2.50;;;1.00;;
55310;SDS011;41173;52.634;-8.666;2022-07-05T19:15:26;7.35;;;1.90;;
55310;SDS011;41173;52.634;-8.666;2022-07-05T19:17:52;5.30;;;1.33;;
55310;SDS011;41173;52.634;-8.666;2022-07-05T19:20:17;5.63;;;1.00;;
55310;SDS011;41173;52.634;-8.666;2022-07-05T19:22:43;3.47;;;1.23;;
55310;SDS011;41173;52.634;-8.666;2022-07-05T19:25:09;3.37;;;1.30;;
55310;SDS011;41173;52.634;-8.666;2022-07-05T19:27:35;4.97;;;1.15;;
55310;SDS011;41173;52.634;-8.666;2022-07-05T19:30:00;5.07;;;1.10;;
55310;SDS011;41173;52.634;-8.666;2022-07-05T19:32:26;4.28;;;1.25;;
55310;SDS011;41173;52.634;-8.666;2022-07-05T19:34:52;6.78;;;1.20;;
55310;SDS011;41173;52.634;-8.666;2022-07-05T19:37:18;5.68;;;1.35;;
55310;SDS011;41173;52.634;-8.666;2022-07-05T19:39:43;6.37;;;1.23;;
55310;SDS011;41173;52.634;-8.666;2022-07-05T19:42:09;4.77;;;1.13;;
55310;SDS011;41173;52.634;-8.666;2022-07-05T19:44:34;2.17;;;0.90;;
55310;SDS011;41173;52.634;-8.666;2022-07-05T19:47:00;7.20;;;1.30;;
55310;SDS011;41173;52.634;-8.666;2022-07-05T19:49:25;10.27;;;1.60;;
55310;SDS011;41173;52.634;-8.666;2022-07-05T19:51:51;6.00;;;1.27;;
55310;SDS011;41173;52.634;-8.666;2022-07-05T19:54:16;7.33;;;1.40;;
55310;SDS011;41173;52.634;-8.666;2022-07-05T19:56:41;5.50;;;1.50;;
55310;SDS011;41173;52.634;-8.666;2022-07-05T19:59:07;5.10;;;1.50;;
55310;SDS011;41173;52.634;-8.666;2022-07-05T20:04:01;5.68;;;1.08;;
55310;SDS011;41173;52.634;-8.666;2022-07-05T20:06:28;10.00;;;1.65;;
55310;SDS011;41173;52.634;-8.666;2022-07-05T20:08:54;12.70;;;2.30;;
55310;SDS011;41173;52.634;-8.666;2022-07-05T20:11:19;7.93;;;2.20;;
55310;SDS011;41173;52.634;-8.666;2022-07-05T20:13:45;7.77;;;1.60;;
55310;SDS011;41173;52.634;-8.666;2022-07-05T20:16:11;9.43;;;1.73;;
55310;SDS011;41173;52.634;-8.666;2022-07-05T20:18:36;8.97;;;2.37;;
55310;SDS011;41173;52.634;-8.666;2022-07-05T20:21:01;13.07;;;1.80;;
55310;SDS011;41173;52.634;-8.666;2022-07-05T20:23:27;6.83;;;1.60;;
55310;SDS011;41173;52.634;-8.666;2022-07-05T20:25:53;11.97;;;2.00;;
55310;SDS011;41173;52.634;-8.666;2022-07-05T20:28:18;5.93;;;1.57;;
55310;SDS011;41173;52.634;-8.666;2022-07-05T20:30:44;7.27;;;2.03;;
55310;SDS011;41173;52.634;-8.666;2022-07-05T20:33:10;11.57;;;2.37;;
55310;SDS011;41173;52.634;-8.666;2022-07-05T20:35:39;9.10;;;2.28;;
55310;SDS011;41173;52.634;-8.666;2022-07-05T20:38:04;8.13;;;2.23;;
55310;SDS011;41173;52.634;-8.666;2022-07-05T20:40:29;11.50;;;2.17;;
55310;SDS011;41173;52.634;-8.666;2022-07-05T20:42:55;6.47;;;1.70;;
55310;SDS011;41173;52.634;-8.666;2022-07-05T20:45:20;9.97;;;1.77;;
55310;SDS011;41173;52.634;-8.666;2022-07-05T20:47:46;8.57;;;2.03;;
55310;SDS011;41173;52.634;-8.666;2022-07-05T20:50:12;8.07;;;1.77;;
55310;SDS011;41173;52.634;-8.666;2022-07-05T20:52:37;4.43;;;1.50;;
55310;SDS011;41173;52.634;-8.666;2022-07-05T20:55:03;11.18;;;2.25;;
55310;SDS011;41173;52.634;-8.666;2022-07-05T20:57:29;6.72;;;1.75;;
55310;SDS011;41173;52.634;-8.666;2022-07-05T20:59:55;10.17;;;1.80;;
55310;SDS011;41173;52.634;-8.666;2022-07-05T21:02:20;8.03;;;1.67;;
55310;SDS011;41173;52.634;-8.666;2022-07-05T21:04:46;6.47;;;1.47;;
55310;SDS011;41173;52.634;-8.666;2022-07-05T21:07:11;9.20;;;2.30;;
55310;SDS011;41173;52.634;-8.666;2022-07-05T21:09:37;12.57;;;2.07;;
55310;SDS011;41173;52.634;-8.666;2022-07-05T21:12:02;15.23;;;2.00;;
55310;SDS011;41173;52.634;-8.666;2022-07-05T21:14:28;7.17;;;2.37;;
55310;SDS011;41173;52.634;-8.666;2022-07-05T21:16:53;8.03;;;1.90;;
55310;SDS011;41173;52.634;-8.666;2022-07-05T21:19:20;8.95;;;2.22;;
55310;SDS011;41173;52.634;-8.666;2022-07-05T21:21:45;10.10;;;1.93;;
55310;SDS011;41173;52.634;-8.666;2022-07-05T21:24:10;6.37;;;1.90;;
55310;SDS011;41173;52.634;-8.666;2022-07-05T21:26:36;7.47;;;2.47;;
55310;SDS011;41173;52.634;-8.666;2022-07-05T21:29:01;9.60;;;1.60;;
55310;SDS011;41173;52.634;-8.666;2022-07-05T21:31:26;12.10;;;2.30;;
55310;SDS011;41173;52.634;-8.666;2022-07-05T21:33:52;10.40;;;1.90;;
55310;SDS011;41173;52.634;-8.666;2022-07-05T21:36:17;10.40;;;2.10;;
55310;SDS011;41173;52.634;-8.666;2022-07-05T21:38:42;6.63;;;2.23;;
55310;SDS011;41173;52.634;-8.666;2022-07-05T21:41:08;6.57;;;2.17;;
55310;SDS011;41173;52.634;-8.666;2022-07-05T21:43:36;6.05;;;1.77;;
55310;SDS011;41173;52.634;-8.666;2022-07-05T21:46:02;7.32;;;2.28;;
55310;SDS011;41173;52.634;-8.666;2022-07-05T21:48:27;6.33;;;2.20;;
55310;SDS011;41173;52.634;-8.666;2022-07-05T21:50:53;9.37;;;2.43;;
55310;SDS011;41173;52.634;-8.666;2022-07-05T21:53:18;11.93;;;2.30;;
55310;SDS011;41173;52.634;-8.666;2022-07-05T21:55:43;8.40;;;2.23;;
55310;SDS011;41173;52.634;-8.666;2022-07-05T21:58:09;12.20;;;3.17;;
55310;SDS011;41173;52.634;-8.666;2022-07-05T22:00:34;10.50;;;2.57;;
55310;SDS011;41173;52.634;-8.666;2022-07-05T22:03:18;6.45;;;2.13;;
55310;SDS011;41173;52.634;-8.666;2022-07-05T22:06:16;10.98;;;2.60;;
55310;SDS011;41173;52.634;-8.666;2022-07-05T22:08:41;11.93;;;2.20;;
55310;SDS011;41173;52.634;-8.666;2022-07-05T22:11:07;12.93;;;3.13;;
55310;SDS011;41173;52.634;-8.666;2022-07-05T22:13:51;14.30;;;2.88;;
55310;SDS011;41173;52.634;-8.666;2022-07-05T22:16:16;8.57;;;2.83;;
55310;SDS011;41173;52.634;-8.666;2022-07-05T22:18:41;12.63;;;2.90;;
55310;SDS011;41173;52.634;-8.666;2022-07-05T22:21:07;10.93;;;2.50;;
55310;SDS011;41173;52.634;-8.666;2022-07-05T22:23:32;12.50;;;2.77;;
55310;SDS011;41173;52.634;-8.666;2022-07-05T22:25:57;7.83;;;2.17;;
55310;SDS011;41173;52.634;-8.666;2022-07-05T22:28:23;10.40;;;2.60;;
55310;SDS011;41173;52.634;-8.666;2022-07-05T22:30:48;13.63;;;2.50;;
55310;SDS011;41173;52.634;-8.666;2022-07-05T22:33:14;12.33;;;2.93;;
55310;SDS011;41173;52.634;-8.666;2022-07-05T22:35:39;14.47;;;2.53;;
55310;SDS011;41173;52.634;-8.666;2022-07-05T22:38:04;17.13;;;3.60;;
55310;SDS011;41173;52.634;-8.666;2022-07-05T22:40:31;7.05;;;2.20;;
55310;SDS011;41173;52.634;-8.666;2022-07-05T22:42:56;12.73;;;2.97;;
55310;SDS011;41173;52.634;-8.666;2022-07-05T22:45:22;25.27;;;3.57;;
55310;SDS011;41173;52.634;-8.666;2022-07-05T22:47:47;12.47;;;2.70;;
55310;SDS011;41173;52.634;-8.666;2022-07-05T22:50:12;19.03;;;3.10;;
55310;SDS011;41173;52.634;-8.666;2022-07-05T22:52:38;9.60;;;2.90;;
55310;SDS011;41173;52.634;-8.666;2022-07-05T22:55:03;12.43;;;2.67;;
55310;SDS011;41173;52.634;-8.666;2022-07-05T22:57:29;16.58;;;3.53;;
55310;SDS011;41173;52.634;-8.666;2022-07-05T22:59:55;13.00;;;2.70;;
55310;SDS011;41173;52.634;-8.666;2022-07-05T23:02:20;14.50;;;3.17;;
55310;SDS011;41173;52.634;-8.666;2022-07-05T23:04:45;13.70;;;3.13;;
55310;SDS011;41173;52.634;-8.666;2022-07-05T23:07:11;14.70;;;2.67;;
55310;SDS011;41173;52.634;-8.666;2022-07-05T23:09:36;16.83;;;2.70;;
55310;SDS011;41173;52.634;-8.666;2022-07-05T23:12:02;13.07;;;3.60;;
55310;SDS011;41173;52.634;-8.666;2022-07-05T23:14:27;11.33;;;2.43;;
55310;SDS011;41173;52.634;-8.666;2022-07-05T23:16:52;15.73;;;3.00;;
55310;SDS011;41173;52.634;-8.666;2022-07-05T23:19:18;14.17;;;2.77;;
55310;SDS011;41173;52.634;-8.666;2022-07-05T23:21:43;9.00;;;2.67;;
55310;SDS011;41173;52.634;-8.666;2022-07-05T23:24:09;10.37;;;2.87;;
55310;SDS011;41173;52.634;-8.666;2022-07-05T23:26:53;13.57;;;2.58;;
55310;SDS011;41173;52.634;-8.666;2022-07-05T23:29:18;13.37;;;2.23;;
55310;SDS011;41173;52.634;-8.666;2022-07-05T23:31:43;9.73;;;2.20;;
55310;SDS011;41173;52.634;-8.666;2022-07-05T23:34:09;15.10;;;3.87;;
55310;SDS011;41173;52.634;-8.666;2022-07-05T23:36:34;13.03;;;2.63;;
55310;SDS011;41173;52.634;-8.666;2022-07-05T23:38:59;9.40;;;2.03;;
55310;SDS011;41173;52.634;-8.666;2022-07-05T23:41:25;7.67;;;1.97;;
55310;SDS011;41173;52.634;-8.666;2022-07-05T23:43:50;16.13;;;3.20;;
55310;SDS011;41173;52.634;-8.666;2022-07-05T23:46:16;13.40;;;2.40;;
55310;SDS011;41173;52.634;-8.666;2022-07-05T23:48:41;13.77;;;2.20;;
55310;SDS011;41173;52.634;-8.666;2022-07-05T23:51:06;15.37;;;2.73;;
55310;SDS011;41173;52.634;-8.666;2022-07-05T23:53:32;13.53;;;2.23;;
55310;SDS011;41173;52.634;-8.666;2022-07-05T23:55:58;10.30;;;2.03;;
55310;SDS011;41173;52.634;-8.666;2022-07-05T23:58:23;10.03;;;2.53;;
